createdAt,value
2023-02-11T00:00:54.000Z,1024.4
2023-02-11T00:02:10.000Z,1024.5
2023-02-11T00:03:42.000Z,1024.5
2023-02-11T00:04:24.929Z,1024.5
2023-02-11T00:05:59.000Z,1024.5
2023-02-11T00:07:31.000Z,1024.4
2023-02-11T00:08:30.000Z,1024.5
2023-02-11T00:09:46.731Z,1024.5
2023-02-11T00:11:02.924Z,1024.6
2023-02-11T00:12:01.117Z,1024.7
2023-02-11T00:13:35.000Z,1024.6
2023-02-11T00:14:33.504Z,1024.6
2023-02-11T00:16:07.762Z,1024.7
2023-02-11T00:17:22.000Z,1024.8
2023-02-11T00:18:39.000Z,1024.8
2023-02-11T00:19:37.307Z,1024.7
2023-02-11T00:21:11.000Z,1024.7
2023-02-11T00:22:27.693Z,1024.8
2023-02-11T00:23:43.886Z,1024.8
2023-02-11T00:24:42.080Z,1024.8
2023-02-11T00:26:16.273Z,1024.7
2023-02-11T00:27:14.467Z,1024.6
2023-02-11T00:28:48.000Z,1024.6
2023-02-11T00:30:20.000Z,1024.5
2023-02-11T00:31:21.122Z,1024.6
2023-02-11T00:32:19.361Z,1024.4
2023-02-11T00:33:53.556Z,1024.4
2023-02-11T00:35:09.749Z,1024.4
2023-02-11T00:36:25.000Z,1024.4
2023-02-11T00:37:42.206Z,1024.4
2023-02-11T00:38:58.000Z,1024.4
2023-02-11T00:39:56.523Z,1024.3
2023-02-11T00:41:12.716Z,1024.4
2023-02-11T00:43:02.000Z,1024.4
2023-02-11T00:44:03.000Z,1024.4
2023-02-11T00:45:01.296Z,1024.4
2023-02-11T00:46:35.000Z,1024.5
2023-02-11T00:47:51.682Z,1024.6
2023-02-11T00:48:49.876Z,1024.5
2023-02-11T00:50:24.000Z,1024.6
2023-02-11T00:51:40.000Z,1024.7
2023-02-11T00:52:38.455Z,1024.7
2023-02-11T00:54:28.000Z,1024.6
2023-02-11T00:55:10.842Z,1024.6
2023-02-11T00:57:01.000Z,1024.5
2023-02-11T00:57:43.228Z,1024.5
2023-02-11T00:59:16.000Z,1024.5
2023-02-11T01:00:32.643Z,1024.6
2023-02-11T01:01:48.000Z,1024.6
2023-02-11T01:02:47.029Z,1024.6
2023-02-11T01:04:37.000Z,1024.4
2023-02-11T01:05:18.428Z,1024.4
2023-02-11T01:06:52.000Z,1024.4
2023-02-11T01:08:08.815Z,1024.2
2023-02-11T01:09:25.000Z,1024.1
2023-02-11T01:10:57.000Z,1024.1
2023-02-11T01:12:13.000Z,1024.1
2023-02-11T01:13:13.588Z,1024.1
2023-02-11T01:14:29.781Z,1024.1
2023-02-11T01:15:27.974Z,1024.1
2023-02-11T01:17:02.237Z,1024
2023-02-11T01:18:18.000Z,1023.9
2023-02-11T01:19:50.000Z,1023.8
2023-02-11T01:20:50.000Z,1023.8
2023-02-11T01:22:06.000Z,1023.7
2023-02-11T01:23:05.134Z,1023.8
2023-02-11T01:24:39.000Z,1023.7
2023-02-11T01:25:55.520Z,1023.8
2023-02-11T01:27:27.000Z,1023.8
2023-02-11T01:28:09.906Z,1023.8
2023-02-11T01:29:44.000Z,1023.8
2023-02-11T01:30:42.292Z,1023.8
2023-02-11T01:32:16.000Z,1023.7
2023-02-11T01:33:47.000Z,1023.7
2023-02-11T01:34:47.000Z,1023.7
2023-02-11T01:35:46.093Z,1023.7
2023-02-11T01:37:19.300Z,1023.7
2023-02-11T01:38:35.493Z,1023.7
2023-02-11T01:39:51.000Z,1023.7
2023-02-11T01:40:49.879Z,1023.6
2023-02-11T01:42:24.000Z,1023.7
2023-02-11T01:43:40.000Z,1023.7
2023-02-11T01:44:56.000Z,1023.6
2023-02-11T01:46:12.000Z,1023.6
2023-02-11T01:47:28.845Z,1023.5
2023-02-11T01:48:27.038Z,1023.5
2023-02-11T01:50:01.000Z,1023.4
2023-02-11T01:51:17.424Z,1023.4
2023-02-11T01:52:33.000Z,1023.5
2023-02-11T01:53:31.811Z,1023.5
2023-02-11T01:55:06.000Z,1023.5
2023-02-11T01:56:21.000Z,1023.6
2023-02-11T01:57:37.000Z,1023.6
2023-02-11T01:58:53.660Z,1023.5
2023-02-11T02:00:09.000Z,1023.5
2023-02-11T02:01:07.984Z,1023.6
2023-02-11T02:02:42.000Z,1023.6
2023-02-11T02:03:58.370Z,1023.6
2023-02-11T02:05:14.000Z,1023.6
2023-02-11T02:06:30.820Z,1023.4
2023-02-11T02:07:46.000Z,1023.4
2023-02-11T02:08:45.142Z,1023.4
2023-02-11T02:10:19.000Z,1023.4
2023-02-11T02:11:35.592Z,1023.6
2023-02-11T02:12:51.721Z,1023.5
2023-02-11T02:13:49.915Z,1023.6
2023-02-11T02:15:23.000Z,1023.6
2023-02-11T02:16:39.335Z,1023.3
2023-02-11T02:17:55.000Z,1023.4
2023-02-11T02:19:11.787Z,1023.4
2023-02-11T02:20:43.000Z,1023.4
2023-02-11T02:21:25.136Z,1023.3
2023-02-11T02:22:59.000Z,1023.5
2023-02-11T02:23:57.522Z,1023.3
2023-02-11T02:25:31.000Z,1023.4
2023-02-11T02:26:48.057Z,1023.4
2023-02-11T02:28:04.000Z,1023.4
2023-02-11T02:29:20.443Z,1023.4
2023-02-11T02:30:36.000Z,1023.4
2023-02-11T02:31:34.830Z,1023.3
2023-02-11T02:33:09.000Z,1023.3
2023-02-11T02:34:25.405Z,1023.3
2023-02-11T02:35:41.000Z,1023.3
2023-02-11T02:36:57.723Z,1023.3
2023-02-11T02:38:13.916Z,1023.4
2023-02-11T02:39:30.109Z,1023.3
2023-02-11T02:40:46.000Z,1023.2
2023-02-11T02:42:02.495Z,1023.3
2023-02-11T02:43:18.000Z,1023.3
2023-02-11T02:44:16.881Z,1023.2
2023-02-11T02:45:51.000Z,1023.1
2023-02-11T02:47:07.336Z,1023.2
2023-02-11T02:48:23.000Z,1023
2023-02-11T02:49:38.666Z,1023
2023-02-11T02:50:54.000Z,1022.9
2023-02-11T02:51:53.053Z,1023.1
2023-02-11T02:53:27.000Z,1023.1
2023-02-11T02:54:43.000Z,1023.1
2023-02-11T02:56:15.000Z,1023.2
2023-02-11T02:57:15.000Z,1023.1
2023-02-11T02:58:32.000Z,1023.1
2023-02-11T02:59:48.000Z,1023.1
2023-02-11T03:01:04.000Z,1023
2023-02-11T03:02:20.000Z,1023
2023-02-11T03:03:36.000Z,1023.1
2023-02-11T03:04:35.128Z,1022.9
2023-02-11T03:06:09.000Z,1023
2023-02-11T03:07:25.514Z,1023
2023-02-11T03:08:41.000Z,1023.1
2023-02-11T03:09:39.900Z,1023
2023-02-11T03:11:30.000Z,1022.9
2023-02-11T03:12:30.362Z,1022.9
2023-02-11T03:13:46.000Z,1022.9
2023-02-11T03:14:44.672Z,1023
2023-02-11T03:16:18.000Z,1023.1
2023-02-11T03:17:17.058Z,1022.9
2023-02-11T03:18:51.000Z,1022.8
2023-02-11T03:20:07.000Z,1022.9
2023-02-11T03:21:23.000Z,1022.9
2023-02-11T03:22:21.830Z,1022.8
2023-02-11T03:23:56.022Z,1022.9
2023-02-11T03:24:54.216Z,1022.8
2023-02-11T03:26:28.000Z,1023
2023-02-11T03:27:26.602Z,1023
2023-02-11T03:29:00.000Z,1022.9
2023-02-11T03:29:58.016Z,1022.9
2023-02-11T03:31:32.000Z,1022.9
2023-02-11T03:32:48.402Z,1022.9
2023-02-11T03:34:04.000Z,1022.9
2023-02-11T03:35:02.788Z,1022.9
2023-02-11T03:36:53.000Z,1022.9
2023-02-11T03:37:35.175Z,1023
2023-02-11T03:39:09.000Z,1023
2023-02-11T03:40:07.561Z,1023
2023-02-11T03:41:41.000Z,1022.9
2023-02-11T03:42:39.947Z,1022.9
2023-02-11T03:44:30.000Z,1022.8
2023-02-11T03:45:30.000Z,1022.9
2023-02-11T03:46:46.000Z,1022.9
2023-02-11T03:48:02.000Z,1022.9
2023-02-11T03:49:18.913Z,1022.9
2023-02-11T03:50:17.106Z,1022.9
2023-02-11T03:51:33.299Z,1022.9
2023-02-11T03:53:07.562Z,1023
2023-02-11T03:54:23.000Z,1023
2023-02-11T03:55:21.878Z,1022.8
2023-02-11T03:57:12.000Z,1022.8
2023-02-11T03:58:11.293Z,1022.9
2023-02-11T03:59:27.000Z,1022.9
2023-02-11T04:00:25.680Z,1022.9
2023-02-11T04:01:59.872Z,1022.8
2023-02-11T04:02:58.066Z,1023
2023-02-11T04:04:32.000Z,1022.9
2023-02-11T04:05:30.451Z,1022.9
2023-02-11T04:07:20.000Z,1022.9
2023-02-11T04:08:20.838Z,1022.9
2023-02-11T04:09:37.000Z,1022.9
2023-02-11T04:10:53.224Z,1022.8
2023-02-11T04:12:09.000Z,1022.8
2023-02-11T04:13:25.000Z,1022.8
2023-02-11T04:14:41.000Z,1022.9
2023-02-11T04:15:39.995Z,1022.8
2023-02-11T04:17:14.188Z,1022.9
2023-02-11T04:18:30.453Z,1022.9
2023-02-11T04:19:46.000Z,1022.9
2023-02-11T04:20:44.767Z,1022.9
2023-02-11T04:22:34.000Z,1022.9
2023-02-11T04:23:35.000Z,1023
2023-02-11T04:24:51.346Z,1022.9
2023-02-11T04:26:07.000Z,1023
2023-02-11T04:27:39.000Z,1022.8
2023-02-11T04:28:21.925Z,1022.8
2023-02-11T04:29:56.000Z,1022.9
2023-02-11T04:31:12.000Z,1022.9
2023-02-11T04:32:28.625Z,1022.9
2023-02-11T04:33:26.818Z,1022.9
2023-02-11T04:35:01.000Z,1022.9
2023-02-11T04:36:17.204Z,1022.8
2023-02-11T04:37:49.000Z,1022.9
2023-02-11T04:38:31.590Z,1022.8
2023-02-11T04:40:05.000Z,1022.8
2023-02-11T04:41:03.977Z,1022.7
2023-02-11T04:42:54.000Z,1022.8
2023-02-11T04:43:36.363Z,1022.7
2023-02-11T04:45:10.000Z,1022.7
2023-02-11T04:46:08.749Z,1022.7
2023-02-11T04:47:42.941Z,1022.7
2023-02-11T04:48:59.000Z,1022.7
2023-02-11T04:49:57.328Z,1022.8
2023-02-11T04:51:13.521Z,1022.7
2023-02-11T04:52:47.714Z,1022.8
2023-02-11T04:54:03.992Z,1022.6
2023-02-11T04:55:20.222Z,1022.5
2023-02-11T04:56:18.414Z,1022.6
2023-02-11T04:57:52.000Z,1022.5
2023-02-11T04:59:08.800Z,1022.6
2023-02-11T05:00:41.000Z,1022.6
2023-02-11T05:01:41.186Z,1022.5
2023-02-11T05:02:57.379Z,1022.4
2023-02-11T05:04:13.000Z,1022.5
2023-02-11T05:05:45.000Z,1022.4
2023-02-11T05:06:27.958Z,1022.4
2023-02-11T05:08:02.000Z,1022.5
2023-02-11T05:09:18.000Z,1022.4
2023-02-11T05:10:34.000Z,1022.4
2023-02-11T05:11:50.000Z,1022.4
2023-02-11T05:13:06.000Z,1022.4
2023-02-11T05:14:22.129Z,1022.4
2023-02-11T05:15:38.000Z,1022.3
2023-02-11T05:16:36.516Z,1022.3
2023-02-11T05:18:10.000Z,1022.2
2023-02-11T05:19:08.902Z,1022.2
2023-02-11T05:20:43.000Z,1022.2
2023-02-11T05:21:41.288Z,1022.1
2023-02-11T05:23:15.000Z,1022.1
2023-02-11T05:24:31.675Z,1022.1
2023-02-11T05:25:47.868Z,1022.1
2023-02-11T05:27:04.061Z,1022
2023-02-11T05:28:20.254Z,1022
2023-02-11T05:29:36.000Z,1021.9
2023-02-11T05:30:52.000Z,1022
2023-02-11T05:31:49.846Z,1021.9
2023-02-11T05:33:24.039Z,1021.9
2023-02-11T05:34:22.233Z,1022
2023-02-11T05:35:56.000Z,1022
2023-02-11T05:36:54.619Z,1022
2023-02-11T05:38:28.000Z,1022
2023-02-11T05:39:45.000Z,1022
2023-02-11T05:41:01.197Z,1021.9
2023-02-11T05:42:17.000Z,1021.9
2023-02-11T05:43:33.000Z,1021.8
2023-02-11T05:44:31.776Z,1021.9
2023-02-11T05:46:05.000Z,1021.8
2023-02-11T05:47:22.230Z,1021.8
2023-02-11T05:48:38.000Z,1021.8
2023-02-11T05:49:36.548Z,1021.8
2023-02-11T05:51:10.000Z,1021.8
2023-02-11T05:52:26.000Z,1021.8
2023-02-11T05:53:59.000Z,1021.9
2023-02-11T05:54:41.320Z,1021.8
2023-02-11T05:56:15.513Z,1021.8
2023-02-11T05:57:13.706Z,1021.9
2023-02-11T05:58:47.000Z,1021.9
2023-02-11T05:59:46.092Z,1021.9
2023-02-11T06:01:20.000Z,1021.9
2023-02-11T06:02:52.000Z,1022
2023-02-11T06:03:52.000Z,1021.9
2023-02-11T06:05:08.864Z,1021.9
2023-02-11T06:06:41.000Z,1021.9
2023-02-11T06:07:41.000Z,1022
2023-02-11T06:08:39.442Z,1022
2023-02-11T06:10:13.710Z,1022
2023-02-11T06:11:29.000Z,1022
2023-02-11T06:12:46.021Z,1022
2023-02-11T06:13:44.214Z,1022
2023-02-11T06:15:00.407Z,1022
2023-02-11T06:16:34.000Z,1021.9
2023-02-11T06:17:50.000Z,1021.9
2023-02-11T06:19:07.000Z,1022
2023-02-11T06:20:04.308Z,1022
2023-02-11T06:21:38.000Z,1022.1
2023-02-11T06:22:36.694Z,1022
2023-02-11T06:24:10.000Z,1022
2023-02-11T06:25:27.000Z,1022
2023-02-11T06:26:43.000Z,1022
2023-02-11T06:27:41.467Z,1022
2023-02-11T06:29:15.660Z,1022
2023-02-11T06:30:31.853Z,1022
2023-02-11T06:31:48.000Z,1022
2023-02-11T06:32:46.239Z,1021.8
2023-02-11T06:34:20.000Z,1021.9
2023-02-11T06:35:36.000Z,1021.9
2023-02-11T06:36:52.000Z,1021.8
2023-02-11T06:38:09.012Z,1021.9
2023-02-11T06:39:25.000Z,1021.8
2023-02-11T06:40:23.398Z,1021.8
2023-02-11T06:41:57.590Z,1021.7
2023-02-11T06:43:13.000Z,1021.6
2023-02-11T06:44:29.000Z,1021.7
2023-02-11T06:45:28.169Z,1021.7
2023-02-11T06:47:02.000Z,1021.8
2023-02-11T06:48:18.000Z,1021.7
2023-02-11T06:49:34.749Z,1021.7
2023-02-11T06:50:50.000Z,1021.7
2023-02-11T06:52:07.000Z,1021.8
2023-02-11T06:53:23.000Z,1021.8
2023-02-11T06:54:21.693Z,1021.9
2023-02-11T06:55:55.000Z,1021.8
2023-02-11T06:57:12.000Z,1021.7
2023-02-11T06:58:28.000Z,1021.8
2023-02-11T06:59:44.690Z,1021.9
2023-02-11T07:00:42.940Z,1021.8
2023-02-11T07:02:17.000Z,1021.9
2023-02-11T07:03:32.000Z,1022
2023-02-11T07:04:30.652Z,1022
2023-02-11T07:06:20.000Z,1021.9
2023-02-11T07:07:37.000Z,1021.8
2023-02-11T07:08:53.000Z,1021.8
2023-02-11T07:09:53.000Z,1021.8
2023-02-11T07:11:09.617Z,1021.7
2023-02-11T07:12:25.811Z,1021.8
2023-02-11T07:13:58.000Z,1021.8
2023-02-11T07:14:58.197Z,1021.8
2023-02-11T07:16:14.000Z,1021.8
2023-02-11T07:17:12.583Z,1021.8
2023-02-11T07:18:46.000Z,1021.8
2023-02-11T07:19:44.970Z,1021.8
2023-02-11T07:21:19.163Z,1021.7
2023-02-11T07:22:17.356Z,1021.5
2023-02-11T07:24:07.000Z,1021.7
2023-02-11T07:25:06.756Z,1021.7
2023-02-11T07:26:22.000Z,1021.7
2023-02-11T07:27:21.143Z,1021.7
2023-02-11T07:28:55.000Z,1021.7
2023-02-11T07:30:11.000Z,1021.7
2023-02-11T07:31:27.000Z,1021.6
2023-02-11T07:32:25.915Z,1021.6
2023-02-11T07:34:00.000Z,1021.5
2023-02-11T07:34:58.302Z,1021.5
2023-02-11T07:36:32.000Z,1021.5
2023-02-11T07:37:48.688Z,1021.5
2023-02-11T07:39:20.000Z,1021.5
2023-02-11T07:40:03.074Z,1021.5
2023-02-11T07:41:37.000Z,1021.5
2023-02-11T07:42:35.460Z,1021.5
2023-02-11T07:44:25.000Z,1021.6
2023-02-11T07:45:25.000Z,1021.6
2023-02-11T07:46:58.000Z,1021.5
2023-02-11T07:47:40.233Z,1021.5
2023-02-11T07:49:14.000Z,1021.6
2023-02-11T07:50:30.619Z,1021.5
2023-02-11T07:52:02.000Z,1021.6
2023-02-11T07:53:03.005Z,1021.6
2023-02-11T07:54:19.198Z,1021.5
2023-02-11T07:55:17.391Z,1021.4
2023-02-11T07:56:51.000Z,1021.5
2023-02-11T07:58:07.000Z,1021.4
2023-02-11T07:59:40.000Z,1021.7
2023-02-11T08:00:56.000Z,1021.7
2023-02-11T08:02:12.000Z,1021.6
2023-02-11T08:03:12.550Z,1021.7
2023-02-11T08:04:28.000Z,1021.6
2023-02-11T08:05:44.936Z,1021.5
2023-02-11T08:07:01.000Z,1021.4
2023-02-11T08:07:59.322Z,1021.5
2023-02-11T08:09:49.000Z,1021.7
2023-02-11T08:10:31.709Z,1021.6
2023-02-11T08:12:22.000Z,1021.8
2023-02-11T08:13:21.000Z,1021.8
2023-02-11T08:14:53.000Z,1021.8
2023-02-11T08:15:53.000Z,1021.9
2023-02-11T08:17:09.000Z,1021.9
2023-02-11T08:18:26.071Z,1021.9
2023-02-11T08:19:58.000Z,1022
2023-02-11T08:20:40.383Z,1022
2023-02-11T08:22:14.000Z,1022.1
2023-02-11T08:23:30.000Z,1022.1
2023-02-11T08:24:46.963Z,1022.1
2023-02-11T08:26:19.000Z,1022
2023-02-11T08:27:35.000Z,1022.1
2023-02-11T08:28:35.542Z,1022
2023-02-11T08:30:07.000Z,1022
2023-02-11T08:31:07.929Z,1021.9
2023-02-11T08:32:24.000Z,1022
2023-02-11T08:33:22.316Z,1022
2023-02-11T08:34:56.000Z,1022.1
2023-02-11T08:36:12.702Z,1022.1
2023-02-11T08:37:28.000Z,1022.1
2023-02-11T08:38:44.000Z,1022.2
2023-02-11T08:40:00.295Z,1022.1
2023-02-11T08:41:16.000Z,1022.2
2023-02-11T08:42:32.000Z,1022.2
2023-02-11T08:43:48.943Z,1022.3
2023-02-11T08:45:05.000Z,1022.1
2023-02-11T08:46:21.261Z,1022.2
2023-02-11T08:47:37.000Z,1022.2
2023-02-11T08:48:53.000Z,1022.4
2023-02-11T08:50:09.840Z,1022.2
2023-02-11T08:51:42.000Z,1022.1
2023-02-11T08:52:42.000Z,1021.9
2023-02-11T08:53:58.000Z,1021.9
2023-02-11T08:55:14.000Z,1021.9
2023-02-11T08:56:12.806Z,1021.9
2023-02-11T08:58:03.000Z,1021.9
2023-02-11T08:59:03.000Z,1021.8
2023-02-11T09:00:19.000Z,1021.9
2023-02-11T09:01:35.659Z,1021.8
2023-02-11T09:02:51.000Z,1021.9
2023-02-11T09:03:49.965Z,1021.9
2023-02-11T09:05:24.000Z,1021.8
2023-02-11T09:06:40.351Z,1021.7
2023-02-11T09:07:56.000Z,1021.7
2023-02-11T09:08:54.737Z,1021.7
2023-02-11T09:10:28.930Z,1021.7
2023-02-11T09:11:27.124Z,1021.8
2023-02-11T09:13:01.000Z,1021.7
2023-02-11T09:14:33.000Z,1021.8
2023-02-11T09:15:49.000Z,1021.8
2023-02-11T09:17:05.000Z,1021.8
2023-02-11T09:18:06.000Z,1022
2023-02-11T09:19:22.000Z,1021.9
2023-02-11T09:20:38.000Z,1022.1
2023-02-11T09:21:54.000Z,1021.9
2023-02-11T09:23:10.862Z,1021.9
2023-02-11T09:24:09.057Z,1022.1
2023-02-11T09:25:43.000Z,1022
2023-02-11T09:26:59.000Z,1022.1
2023-02-11T09:27:57.813Z,1022.2
2023-02-11T09:29:31.000Z,1022.2
2023-02-11T09:30:29.273Z,1022.1
2023-02-11T09:32:19.000Z,1022.1
2023-02-11T09:33:19.662Z,1022
2023-02-11T09:34:35.000Z,1022.1
2023-02-11T09:35:33.066Z,1022.2
2023-02-11T09:37:07.000Z,1022.1
2023-02-11T09:38:23.000Z,1022.3
2023-02-11T09:39:39.000Z,1022.3
2023-02-11T09:40:55.845Z,1022.2
2023-02-11T09:42:12.000Z,1022.2
2023-02-11T09:43:28.000Z,1022.2
2023-02-11T09:44:44.430Z,1022.2
2023-02-11T09:46:00.000Z,1022.3
2023-02-11T09:47:32.000Z,1022.3
2023-02-11T09:48:15.015Z,1022.3
2023-02-11T09:49:49.210Z,1022.4
2023-02-11T09:50:47.405Z,1022.2
2023-02-11T09:52:21.601Z,1022.3
2023-02-11T09:53:19.795Z,1022.4
2023-02-11T09:54:53.000Z,1022.3
2023-02-11T09:56:10.000Z,1022.6
2023-02-11T09:57:26.381Z,1022.5
2023-02-11T09:58:42.576Z,1022.4
2023-02-11T09:59:58.772Z,1022.5
2023-02-11T10:01:14.967Z,1022.4
2023-02-11T10:02:47.000Z,1022.6
2023-02-11T10:03:47.000Z,1022.5
2023-02-11T10:05:19.000Z,1022.5
2023-02-11T10:06:19.000Z,1022.4
2023-02-11T10:07:35.000Z,1022.4
2023-02-11T10:08:34.137Z,1022.4
2023-02-11T10:10:08.000Z,1022.5
2023-02-11T10:11:24.000Z,1022.5
2023-02-11T10:12:56.000Z,1022.5
2023-02-11T10:13:38.918Z,1022.5
2023-02-11T10:15:13.000Z,1022.7
2023-02-11T10:16:11.308Z,1022.6
2023-02-11T10:17:45.000Z,1022.5
2023-02-11T10:19:01.000Z,1022.4
2023-02-11T10:20:33.000Z,1022.4
2023-02-11T10:21:16.089Z,1022.4
2023-02-11T10:22:49.000Z,1022.3
2023-02-11T10:24:05.508Z,1022.5
2023-02-11T10:25:37.000Z,1022.5
2023-02-11T10:26:37.898Z,1022.5
2023-02-11T10:27:54.000Z,1022.5
2023-02-11T10:28:52.288Z,1022.6
2023-02-11T10:30:26.000Z,1022.5
2023-02-11T10:31:42.000Z,1022.5
2023-02-11T10:32:58.000Z,1022.6
2023-02-11T10:33:57.069Z,1022.6
2023-02-11T10:35:31.000Z,1022.7
2023-02-11T10:36:47.459Z,1022.6
2023-02-11T10:38:03.000Z,1022.6
2023-02-11T10:39:19.849Z,1022.6
2023-02-11T10:40:52.000Z,1022.6
2023-02-11T10:41:34.239Z,1022.5
2023-02-11T10:43:08.435Z,1022.5
2023-02-11T10:44:24.629Z,1022.7
2023-02-11T10:45:40.000Z,1022.4
2023-02-11T10:46:39.020Z,1022.5
2023-02-11T10:48:13.000Z,1022.4
2023-02-11T10:49:29.410Z,1022.2
2023-02-11T10:50:45.000Z,1022.3
2023-02-11T10:52:01.800Z,1022.3
2023-02-11T10:53:18.000Z,1022.3
2023-02-11T10:54:34.000Z,1022.4
2023-02-11T10:55:49.000Z,1022.4
2023-02-11T10:57:05.711Z,1022.4
2023-02-11T10:58:21.906Z,1022.4
2023-02-11T10:59:38.000Z,1022.4
2023-02-11T11:00:54.296Z,1022.3
2023-02-11T11:02:10.491Z,1022.4
2023-02-11T11:03:26.000Z,1022.2
2023-02-11T11:04:42.000Z,1022.2
2023-02-11T11:05:59.076Z,1022.2
2023-02-11T11:07:15.349Z,1022.2
2023-02-11T11:08:31.000Z,1022.3
2023-02-11T11:09:47.000Z,1022.2
2023-02-11T11:11:19.000Z,1022.3
2023-02-11T11:12:02.052Z,1022.3
2023-02-11T11:13:36.000Z,1022.2
2023-02-11T11:14:52.000Z,1022.3
2023-02-11T11:16:08.637Z,1022.4
2023-02-11T11:17:40.000Z,1022.3
2023-02-11T11:18:57.000Z,1022.4
2023-02-11T11:19:39.222Z,1022.3
2023-02-11T11:21:13.000Z,1022.4
2023-02-11T11:22:29.000Z,1022.3
2023-02-11T11:23:45.000Z,1022.2
2023-02-11T11:25:18.000Z,1022.3
2023-02-11T11:26:18.000Z,1022.2
2023-02-11T11:27:34.452Z,1022.1
2023-02-11T11:28:50.000Z,1022.2
2023-02-11T11:29:48.955Z,1022
2023-02-11T11:31:05.207Z,1021.9
2023-02-11T11:32:39.000Z,1022
2023-02-11T11:33:37.709Z,1022.2
2023-02-11T11:35:11.961Z,1022.2
2023-02-11T11:36:27.000Z,1022.3
2023-02-11T11:37:25.427Z,1022.3
2023-02-11T11:38:59.622Z,1022.2
2023-02-11T11:39:57.817Z,1022.3
2023-02-11T11:41:47.000Z,1022.2
2023-02-11T11:42:47.220Z,1022.1
2023-02-11T11:44:03.000Z,1022.1
2023-02-11T11:45:01.610Z,1021.9
2023-02-11T11:46:35.806Z,1022.1
2023-02-11T11:47:34.000Z,1022.2
2023-02-11T11:49:08.000Z,1022.1
2023-02-11T11:50:40.000Z,1022.2
2023-02-11T11:51:40.586Z,1022.1
2023-02-11T11:52:56.781Z,1022.2
2023-02-11T11:54:12.000Z,1022.1
2023-02-11T11:55:29.171Z,1022.1
2023-02-11T11:56:45.000Z,1022.2
2023-02-11T11:57:43.562Z,1022.1
2023-02-11T11:59:17.757Z,1022
2023-02-11T12:00:15.952Z,1022.1
2023-02-11T12:01:50.000Z,1022.1
2023-02-11T12:03:06.000Z,1022.2
2023-02-11T12:04:22.000Z,1022.2
2023-02-11T12:05:38.000Z,1022.3
2023-02-11T12:06:54.928Z,1022.2
2023-02-11T12:08:11.000Z,1022.2
2023-02-11T12:09:27.000Z,1022.2
2023-02-11T12:10:43.587Z,1022.1
2023-02-11T12:11:59.709Z,1022.2
2023-02-11T12:12:57.904Z,1022
2023-02-11T12:14:32.099Z,1022.1
2023-02-11T12:15:48.294Z,1022.1
2023-02-11T12:17:04.490Z,1022
2023-02-11T12:18:36.000Z,1022.1
2023-02-11T12:19:35.000Z,1022.2
2023-02-11T12:20:52.000Z,1022.1
2023-02-11T12:22:08.300Z,1022.1
2023-02-11T12:23:24.000Z,1022.1
2023-02-11T12:24:40.690Z,1022.2
2023-02-11T12:25:38.885Z,1022.1
2023-02-11T12:27:29.000Z,1022.1
2023-02-11T12:28:11.275Z,1022.2
2023-02-11T12:29:45.000Z,1022.1
2023-02-11T12:30:42.679Z,1022.1
2023-02-11T12:32:16.000Z,1022.1
2023-02-11T12:33:33.069Z,1022.1
2023-02-11T12:34:49.000Z,1022.2
2023-02-11T12:36:05.538Z,1022.1
2023-02-11T12:37:37.000Z,1022.1
2023-02-11T12:38:19.850Z,1022.2
2023-02-11T12:39:54.000Z,1022.2
2023-02-11T12:41:10.241Z,1022.2
2023-02-11T12:42:42.000Z,1022.1
2023-02-11T12:43:24.631Z,1022.2
2023-02-11T12:44:58.000Z,1022.2
2023-02-11T12:46:15.000Z,1022.2
2023-02-11T12:47:31.000Z,1022.2
2023-02-11T12:48:29.412Z,1022.2
2023-02-11T12:50:03.000Z,1022.2
2023-02-11T12:51:19.802Z,1022.2
2023-02-11T12:52:35.998Z,1022.2
2023-02-11T12:54:07.000Z,1022.1
2023-02-11T12:55:07.000Z,1022.2
2023-02-11T12:56:05.612Z,1022.3
2023-02-11T12:57:55.000Z,1022.2
2023-02-11T12:58:55.016Z,1022.3
2023-02-11T13:00:11.000Z,1022.2
2023-02-11T13:01:09.406Z,1022.4
2023-02-11T13:02:43.602Z,1022.3
2023-02-11T13:03:41.797Z,1022.2
2023-02-11T13:05:16.000Z,1022.3
2023-02-11T13:06:14.187Z,1022.3
2023-02-11T13:08:04.000Z,1022.5
2023-02-11T13:08:46.578Z,1022.6
2023-02-11T13:10:20.000Z,1022.5
2023-02-11T13:11:36.968Z,1022.5
2023-02-11T13:13:09.000Z,1022.4
2023-02-11T13:14:09.436Z,1022.5
2023-02-11T13:15:25.554Z,1022.6
2023-02-11T13:16:41.833Z,1022.5
2023-02-11T13:17:57.000Z,1022.4
2023-02-11T13:19:14.000Z,1022.3
2023-02-11T13:20:30.000Z,1022.4
2023-02-11T13:21:28.530Z,1022.4
2023-02-11T13:23:02.000Z,1022.3
2023-02-11T13:24:18.000Z,1022.3
2023-02-11T13:25:35.000Z,1022.4
2023-02-11T13:26:51.387Z,1022.4
2023-02-11T13:28:07.506Z,1022.5
2023-02-11T13:29:23.781Z,1022.4
2023-02-11T13:30:39.896Z,1022.5
2023-02-11T13:32:12.000Z,1022.6
2023-02-11T13:33:12.287Z,1022.7
2023-02-11T13:34:28.000Z,1022.5
2023-02-11T13:35:44.000Z,1022.5
2023-02-11T13:37:00.000Z,1022.6
2023-02-11T13:38:17.068Z,1022.6
2023-02-11T13:39:15.263Z,1022.6
2023-02-11T13:40:49.000Z,1022.6
2023-02-11T13:41:47.653Z,1022.6
2023-02-11T13:43:22.000Z,1022.7
2023-02-11T13:44:20.191Z,1022.7
2023-02-11T13:46:10.000Z,1022.8
2023-02-11T13:46:52.582Z,1022.6
2023-02-11T13:48:26.777Z,1022.7
2023-02-11T13:49:42.972Z,1022.7
2023-02-11T13:50:59.000Z,1022.7
2023-02-11T13:51:57.362Z,1022.8
2023-02-11T13:53:31.558Z,1022.7
2023-02-11T13:54:46.852Z,1022.7
2023-02-11T13:56:02.962Z,1022.7
2023-02-11T13:57:01.156Z,1022.8
2023-02-11T13:58:35.000Z,1022.8
2023-02-11T13:59:33.547Z,1022.8
2023-02-11T14:01:07.000Z,1022.8
2023-02-11T14:02:23.000Z,1022.8
2023-02-11T14:03:40.133Z,1022.7
2023-02-11T14:04:56.000Z,1022.8
2023-02-11T14:06:12.523Z,1022.7
2023-02-11T14:07:10.718Z,1022.7
2023-02-11T14:08:44.000Z,1022.6
2023-02-11T14:10:01.000Z,1022.6
2023-02-11T14:11:17.000Z,1022.7
2023-02-11T14:12:49.000Z,1022.6
2023-02-11T14:13:49.000Z,1022.6
2023-02-11T14:15:05.891Z,1022.7
2023-02-11T14:16:22.087Z,1022.7
2023-02-11T14:17:20.282Z,1022.7
2023-02-11T14:18:54.000Z,1022.8
2023-02-11T14:19:52.672Z,1022.7
2023-02-11T14:21:26.000Z,1022.7
2023-02-11T14:22:43.000Z,1022.7
2023-02-11T14:23:59.000Z,1022.7
2023-02-11T14:25:31.000Z,1022.8
2023-02-11T14:26:31.649Z,1022.8
2023-02-11T14:27:47.844Z,1022.7
2023-02-11T14:29:04.041Z,1022.8
2023-02-11T14:30:20.236Z,1022.8
2023-02-11T14:31:36.431Z,1022.8
2023-02-11T14:32:52.712Z,1023
2023-02-11T14:34:08.000Z,1022.8
2023-02-11T14:35:07.017Z,1022.8
2023-02-11T14:36:41.000Z,1022.8
2023-02-11T14:37:39.408Z,1022.8
2023-02-11T14:38:55.603Z,1022.8
2023-02-11T14:40:29.000Z,1022.8
2023-02-11T14:41:46.000Z,1022.8
2023-02-11T14:43:01.408Z,1022.7
2023-02-11T14:44:17.515Z,1022.7
2023-02-11T14:45:15.710Z,1022.7
2023-02-11T14:46:49.000Z,1022.7
2023-02-11T14:48:06.000Z,1023
2023-02-11T14:49:22.000Z,1022.8
2023-02-11T14:50:20.491Z,1022.8
2023-02-11T14:52:10.000Z,1022.8
2023-02-11T14:53:10.881Z,1022.9
2023-02-11T14:54:27.077Z,1022.9
2023-02-11T14:55:25.271Z,1022.9
2023-02-11T14:56:59.467Z,1023
2023-02-11T14:58:15.662Z,1023
2023-02-11T14:59:31.000Z,1023
2023-02-11T15:01:04.000Z,1023
2023-02-11T15:02:04.000Z,1023
2023-02-11T15:03:02.443Z,1023.1
2023-02-11T15:04:36.000Z,1023.1
2023-02-11T15:05:52.834Z,1023.1
2023-02-11T15:07:09.030Z,1023.2
2023-02-11T15:08:25.308Z,1023.2
2023-02-11T15:09:41.000Z,1023.1
2023-02-11T15:10:57.691Z,1023
2023-02-11T15:12:13.811Z,1023.2
2023-02-11T15:13:30.006Z,1023
2023-02-11T15:14:46.000Z,1023.1
2023-02-11T15:16:02.000Z,1023.2
2023-02-11T15:17:17.779Z,1023.2
2023-02-11T15:18:33.000Z,1023.1
2023-02-11T15:19:50.170Z,1023.1
2023-02-11T15:21:06.366Z,1023.2
2023-02-11T15:22:04.560Z,1023.2
2023-02-11T15:23:38.000Z,1023.3
2023-02-11T15:24:36.952Z,1023.3
2023-02-11T15:25:53.148Z,1023.4
2023-02-11T15:27:43.000Z,1023.3
2023-02-11T15:28:43.000Z,1023.5
2023-02-11T15:29:41.733Z,1023.2
2023-02-11T15:31:15.000Z,1023.2
2023-02-11T15:32:32.123Z,1023.3
2023-02-11T15:33:48.000Z,1023.4
2023-02-11T15:35:04.513Z,1023.4
2023-02-11T15:36:20.000Z,1023.4
2023-02-11T15:37:36.000Z,1023.5
2023-02-11T15:39:09.000Z,1023.5
2023-02-11T15:40:09.000Z,1023.4
2023-02-11T15:41:41.000Z,1023.4
2023-02-11T15:42:23.685Z,1023.5
2023-02-11T15:43:57.881Z,1023.5
2023-02-11T15:46:46.000Z,1023.4
2023-02-11T15:47:28.466Z,1023.5
2023-02-11T15:49:02.000Z,1023.6
2023-02-11T15:50:00.971Z,1023.7
2023-02-11T15:51:35.000Z,1023.6
2023-02-11T15:53:06.000Z,1023.5
2023-02-11T15:54:22.000Z,1023.5
2023-02-11T15:55:22.000Z,1023.5
2023-02-11T15:56:55.000Z,1023.6